sensor_id;sensor_type;location;lat;lon;timestamp;P1;durP1;ratioP1;P2;durP2;ratioP2
83125;SDS011;73488;47.234;-1.540;2024-01-07T00:02:12;3.90;;;3.15;;
83125;SDS011;73488;47.234;-1.540;2024-01-07T00:04:38;5.82;;;3.47;;
83125;SDS011;73488;47.234;-1.540;2024-01-07T00:07:05;6.35;;;2.72;;
83125;SDS011;73488;47.234;-1.540;2024-01-07T00:09:30;4.75;;;2.90;;
83125;SDS011;73488;47.234;-1.540;2024-01-07T00:11:56;3.67;;;2.58;;
83125;SDS011;73488;47.234;-1.540;2024-01-07T00:14:21;4.45;;;2.75;;
83125;SDS011;73488;47.234;-1.540;2024-01-07T00:16:46;5.93;;;3.55;;
83125;SDS011;73488;47.234;-1.540;2024-01-07T00:19:12;4.55;;;2.88;;
83125;SDS011;73488;47.234;-1.540;2024-01-07T00:21:37;4.07;;;2.70;;
83125;SDS011;73488;47.234;-1.540;2024-01-07T00:24:03;8.93;;;3.17;;
83125;SDS011;73488;47.234;-1.540;2024-01-07T00:26:28;3.72;;;2.45;;
83125;SDS011;73488;47.234;-1.540;2024-01-07T00:28:54;4.18;;;3.17;;
83125;SDS011;73488;47.234;-1.540;2024-01-07T00:31:19;5.20;;;2.70;;
83125;SDS011;73488;47.234;-1.540;2024-01-07T00:33:44;4.80;;;3.30;;
83125;SDS011;73488;47.234;-1.540;2024-01-07T00:36:10;5.65;;;2.97;;
83125;SDS011;73488;47.234;-1.540;2024-01-07T00:38:35;5.22;;;2.88;;
83125;SDS011;73488;47.234;-1.540;2024-01-07T00:41:01;3.30;;;3.00;;
83125;SDS011;73488;47.234;-1.540;2024-01-07T00:43:26;4.72;;;2.90;;
83125;SDS011;73488;47.234;-1.540;2024-01-07T00:45:51;4.88;;;3.33;;
83125;SDS011;73488;47.234;-1.540;2024-01-07T00:48:17;5.93;;;2.83;;
83125;SDS011;73488;47.234;-1.540;2024-01-07T00:50:42;4.50;;;2.80;;
83125;SDS011;73488;47.234;-1.540;2024-01-07T00:53:08;4.53;;;2.42;;
83125;SDS011;73488;47.234;-1.540;2024-01-07T00:55:33;6.72;;;2.55;;
83125;SDS011;73488;47.234;-1.540;2024-01-07T00:58:00;4.10;;;2.70;;
83125;SDS011;73488;47.234;-1.540;2024-01-07T01:00:26;5.95;;;3.05;;
83125;SDS011;73488;47.234;-1.540;2024-01-07T01:02:52;5.07;;;2.50;;
83125;SDS011;73488;47.234;-1.540;2024-01-07T01:05:18;4.95;;;3.30;;
83125;SDS011;73488;47.234;-1.540;2024-01-07T01:07:43;4.03;;;2.88;;
83125;SDS011;73488;47.234;-1.540;2024-01-07T01:10:09;4.50;;;3.17;;
83125;SDS011;73488;47.234;-1.540;2024-01-07T01:12:34;5.82;;;3.25;;
83125;SDS011;73488;47.234;-1.540;2024-01-07T01:15:00;3.72;;;3.03;;
83125;SDS011;73488;47.234;-1.540;2024-01-07T01:17:25;3.97;;;2.63;;
83125;SDS011;73488;47.234;-1.540;2024-01-07T01:19:51;3.38;;;2.65;;
83125;SDS011;73488;47.234;-1.540;2024-01-07T01:22:16;4.60;;;2.85;;
83125;SDS011;73488;47.234;-1.540;2024-01-07T01:24:41;4.68;;;2.63;;
83125;SDS011;73488;47.234;-1.540;2024-01-07T01:29:36;3.47;;;2.50;;
83125;SDS011;73488;47.234;-1.540;2024-01-07T01:32:01;5.38;;;2.50;;
83125;SDS011;73488;47.234;-1.540;2024-01-07T01:34:27;2.80;;;2.20;;
83125;SDS011;73488;47.234;-1.540;2024-01-07T01:36:52;4.00;;;3.00;;
83125;SDS011;73488;47.234;-1.540;2024-01-07T01:39:17;3.53;;;2.00;;
83125;SDS011;73488;47.234;-1.540;2024-01-07T01:41:43;4.80;;;2.83;;
83125;SDS011;73488;47.234;-1.540;2024-01-07T01:44:09;5.13;;;3.45;;
83125;SDS011;73488;47.234;-1.540;2024-01-07T01:46:34;6.40;;;3.00;;
83125;SDS011;73488;47.234;-1.540;2024-01-07T01:49:00;3.55;;;2.63;;
83125;SDS011;73488;47.234;-1.540;2024-01-07T01:51:25;3.10;;;1.80;;
83125;SDS011;73488;47.234;-1.540;2024-01-07T01:53:51;3.25;;;2.35;;
83125;SDS011;73488;47.234;-1.540;2024-01-07T01:56:17;3.90;;;2.50;;
83125;SDS011;73488;47.234;-1.540;2024-01-07T01:58:45;3.50;;;2.45;;
83125;SDS011;73488;47.234;-1.540;2024-01-07T02:01:10;4.55;;;2.05;;
83125;SDS011;73488;47.234;-1.540;2024-01-07T02:03:35;3.58;;;2.30;;
83125;SDS011;73488;47.234;-1.540;2024-01-07T02:06:01;4.28;;;2.22;;
83125;SDS011;73488;47.234;-1.540;2024-01-07T02:08:27;3.25;;;1.98;;
83125;SDS011;73488;47.234;-1.540;2024-01-07T02:10:52;5.55;;;2.72;;
83125;SDS011;73488;47.234;-1.540;2024-01-07T02:13:18;4.35;;;2.67;;
83125;SDS011;73488;47.234;-1.540;2024-01-07T02:15:43;4.35;;;2.78;;
83125;SDS011;73488;47.234;-1.540;2024-01-07T02:18:09;3.85;;;2.17;;
83125;SDS011;73488;47.234;-1.540;2024-01-07T02:20:34;3.40;;;2.33;;
83125;SDS011;73488;47.234;-1.540;2024-01-07T02:23:01;3.58;;;3.00;;
83125;SDS011;73488;47.234;-1.540;2024-01-07T02:25:27;4.13;;;2.38;;
83125;SDS011;73488;47.234;-1.540;2024-01-07T02:27:52;5.45;;;2.53;;
83125;SDS011;73488;47.234;-1.540;2024-01-07T02:30:17;3.55;;;2.40;;
83125;SDS011;73488;47.234;-1.540;2024-01-07T02:32:43;2.88;;;2.03;;
83125;SDS011;73488;47.234;-1.540;2024-01-07T02:35:08;4.63;;;2.20;;
83125;SDS011;73488;47.234;-1.540;2024-01-07T02:37:34;3.63;;;2.85;;
83125;SDS011;73488;47.234;-1.540;2024-01-07T02:39:59;4.68;;;2.13;;
83125;SDS011;73488;47.234;-1.540;2024-01-07T02:42:25;3.95;;;2.45;;
83125;SDS011;73488;47.234;-1.540;2024-01-07T02:44:50;3.67;;;2.63;;
83125;SDS011;73488;47.234;-1.540;2024-01-07T02:47:15;3.10;;;2.13;;
83125;SDS011;73488;47.234;-1.540;2024-01-07T02:49:41;3.83;;;2.35;;
83125;SDS011;73488;47.234;-1.540;2024-01-07T02:52:06;3.67;;;2.15;;
83125;SDS011;73488;47.234;-1.540;2024-01-07T02:54:32;3.67;;;1.98;;
83125;SDS011;73488;47.234;-1.540;2024-01-07T02:56:57;4.07;;;2.95;;
83125;SDS011;73488;47.234;-1.540;2024-01-07T02:59:22;3.50;;;2.17;;
83125;SDS011;73488;47.234;-1.540;2024-01-07T03:01:48;4.00;;;2.78;;
83125;SDS011;73488;47.234;-1.540;2024-01-07T03:04:14;2.78;;;2.28;;
83125;SDS011;73488;47.234;-1.540;2024-01-07T03:06:40;4.22;;;2.38;;
83125;SDS011;73488;47.234;-1.540;2024-01-07T03:09:06;3.50;;;2.55;;
83125;SDS011;73488;47.234;-1.540;2024-01-07T03:11:32;3.92;;;1.60;;
83125;SDS011;73488;47.234;-1.540;2024-01-07T03:13:58;6.07;;;2.60;;
83125;SDS011;73488;47.234;-1.540;2024-01-07T03:16:24;4.55;;;2.42;;
83125;SDS011;73488;47.234;-1.540;2024-01-07T03:18:50;4.07;;;2.03;;
83125;SDS011;73488;47.234;-1.540;2024-01-07T03:21:19;3.65;;;2.55;;
83125;SDS011;73488;47.234;-1.540;2024-01-07T03:23:45;4.03;;;2.33;;
83125;SDS011;73488;47.234;-1.540;2024-01-07T03:26:11;3.08;;;2.05;;
83125;SDS011;73488;47.234;-1.540;2024-01-07T03:28:37;3.97;;;2.30;;
83125;SDS011;73488;47.234;-1.540;2024-01-07T03:31:13;3.83;;;2.50;;
83125;SDS011;73488;47.234;-1.540;2024-01-07T03:33:40;4.57;;;2.50;;
83125;SDS011;73488;47.234;-1.540;2024-01-07T03:36:14;3.40;;;2.28;;
83125;SDS011;73488;47.234;-1.540;2024-01-07T03:38:40;3.63;;;2.42;;
83125;SDS011;73488;47.234;-1.540;2024-01-07T03:41:06;4.25;;;2.20;;
83125;SDS011;73488;47.234;-1.540;2024-01-07T03:43:32;3.17;;;2.03;;
83125;SDS011;73488;47.234;-1.540;2024-01-07T03:45:57;2.65;;;2.13;;
83125;SDS011;73488;47.234;-1.540;2024-01-07T03:48:23;2.30;;;2.10;;
83125;SDS011;73488;47.234;-1.540;2024-01-07T03:50:49;3.00;;;2.28;;
83125;SDS011;73488;47.234;-1.540;2024-01-07T03:53:14;2.65;;;2.03;;
83125;SDS011;73488;47.234;-1.540;2024-01-07T03:55:42;5.43;;;2.00;;
83125;SDS011;73488;47.234;-1.540;2024-01-07T03:58:07;4.05;;;2.45;;
83125;SDS011;73488;47.234;-1.540;2024-01-07T04:00:33;3.97;;;2.63;;
83125;SDS011;73488;47.234;-1.540;2024-01-07T04:02:59;2.55;;;2.03;;
83125;SDS011;73488;47.234;-1.540;2024-01-07T04:05:24;3.30;;;2.35;;
83125;SDS011;73488;47.234;-1.540;2024-01-07T04:07:50;3.88;;;2.55;;
83125;SDS011;73488;47.234;-1.540;2024-01-07T04:10:18;2.40;;;2.00;;
83125;SDS011;73488;47.234;-1.540;2024-01-07T04:12:44;3.92;;;2.35;;
83125;SDS011;73488;47.234;-1.540;2024-01-07T04:15:10;2.40;;;2.17;;
83125;SDS011;73488;47.234;-1.540;2024-01-07T04:17:36;3.92;;;2.22;;
83125;SDS011;73488;47.234;-1.540;2024-01-07T04:20:02;2.88;;;1.73;;
83125;SDS011;73488;47.234;-1.540;2024-01-07T04:22:28;3.80;;;2.17;;
83125;SDS011;73488;47.234;-1.540;2024-01-07T04:24:53;2.70;;;2.10;;
83125;SDS011;73488;47.234;-1.540;2024-01-07T04:27:19;2.65;;;2.45;;
83125;SDS011;73488;47.234;-1.540;2024-01-07T04:29:44;3.13;;;2.13;;
83125;SDS011;73488;47.234;-1.540;2024-01-07T04:32:09;2.67;;;2.00;;
83125;SDS011;73488;47.234;-1.540;2024-01-07T04:34:35;3.30;;;2.00;;
83125;SDS011;73488;47.234;-1.540;2024-01-07T04:37:00;4.13;;;2.05;;
83125;SDS011;73488;47.234;-1.540;2024-01-07T04:39:25;2.85;;;2.08;;
83125;SDS011;73488;47.234;-1.540;2024-01-07T04:41:51;3.83;;;2.42;;
83125;SDS011;73488;47.234;-1.540;2024-01-07T04:44:16;2.17;;;1.77;;
83125;SDS011;73488;47.234;-1.540;2024-01-07T04:46:42;3.03;;;2.10;;
83125;SDS011;73488;47.234;-1.540;2024-01-07T04:49:07;2.65;;;1.48;;
83125;SDS011;73488;47.234;-1.540;2024-01-07T04:51:33;2.13;;;1.80;;
83125;SDS011;73488;47.234;-1.540;2024-01-07T04:53:58;2.95;;;2.15;;
83125;SDS011;73488;47.234;-1.540;2024-01-07T04:56:24;3.45;;;1.67;;
83125;SDS011;73488;47.234;-1.540;2024-01-07T04:58:49;2.47;;;2.00;;
83125;SDS011;73488;47.234;-1.540;2024-01-07T05:01:14;2.25;;;1.60;;
83125;SDS011;73488;47.234;-1.540;2024-01-07T05:03:40;3.30;;;2.40;;
83125;SDS011;73488;47.234;-1.540;2024-01-07T05:06:09;2.47;;;2.00;;
83125;SDS011;73488;47.234;-1.540;2024-01-07T05:08:35;3.28;;;2.10;;
83125;SDS011;73488;47.234;-1.540;2024-01-07T05:11:01;3.10;;;2.15;;
83125;SDS011;73488;47.234;-1.540;2024-01-07T05:13:26;2.88;;;1.80;;
83125;SDS011;73488;47.234;-1.540;2024-01-07T05:15:52;1.92;;;1.70;;
83125;SDS011;73488;47.234;-1.540;2024-01-07T05:18:25;2.60;;;1.73;;
83125;SDS011;73488;47.234;-1.540;2024-01-07T05:20:50;3.20;;;1.83;;
83125;SDS011;73488;47.234;-1.540;2024-01-07T05:23:16;2.70;;;1.70;;
83125;SDS011;73488;47.234;-1.540;2024-01-07T05:25:42;2.00;;;1.77;;
83125;SDS011;73488;47.234;-1.540;2024-01-07T05:28:08;1.88;;;1.67;;
83125;SDS011;73488;47.234;-1.540;2024-01-07T05:30:34;3.10;;;1.63;;
83125;SDS011;73488;47.234;-1.540;2024-01-07T05:32:59;3.25;;;1.80;;
83125;SDS011;73488;47.234;-1.540;2024-01-07T05:35:25;3.38;;;1.88;;
83125;SDS011;73488;47.234;-1.540;2024-01-07T05:37:50;2.47;;;2.08;;
83125;SDS011;73488;47.234;-1.540;2024-01-07T05:40:15;3.13;;;2.20;;
83125;SDS011;73488;47.234;-1.540;2024-01-07T05:42:41;2.80;;;2.00;;
83125;SDS011;73488;47.234;-1.540;2024-01-07T05:45:06;2.38;;;1.85;;
83125;SDS011;73488;47.234;-1.540;2024-01-07T05:47:32;3.33;;;1.80;;
83125;SDS011;73488;47.234;-1.540;2024-01-07T05:49:57;2.88;;;1.63;;
83125;SDS011;73488;47.234;-1.540;2024-01-07T05:52:23;1.80;;;1.48;;
83125;SDS011;73488;47.234;-1.540;2024-01-07T05:54:49;2.15;;;1.88;;
83125;SDS011;73488;47.234;-1.540;2024-01-07T05:57:14;1.98;;;1.67;;
83125;SDS011;73488;47.234;-1.540;2024-01-07T05:59:39;2.47;;;1.70;;
83125;SDS011;73488;47.234;-1.540;2024-01-07T06:02:05;2.70;;;1.58;;
83125;SDS011;73488;47.234;-1.540;2024-01-07T06:04:30;3.33;;;2.03;;
83125;SDS011;73488;47.234;-1.540;2024-01-07T06:06:56;2.08;;;1.88;;
83125;SDS011;73488;47.234;-1.540;2024-01-07T06:09:21;2.10;;;1.42;;
83125;SDS011;73488;47.234;-1.540;2024-01-07T06:11:46;3.17;;;1.90;;
83125;SDS011;73488;47.234;-1.540;2024-01-07T06:14:12;2.45;;;1.85;;
83125;SDS011;73488;47.234;-1.540;2024-01-07T06:16:37;1.90;;;1.75;;
83125;SDS011;73488;47.234;-1.540;2024-01-07T06:19:03;2.33;;;2.13;;
83125;SDS011;73488;47.234;-1.540;2024-01-07T06:21:28;2.17;;;1.92;;
83125;SDS011;73488;47.234;-1.540;2024-01-07T06:23:54;2.13;;;1.50;;
83125;SDS011;73488;47.234;-1.540;2024-01-07T06:26:20;3.33;;;1.55;;
83125;SDS011;73488;47.234;-1.540;2024-01-07T06:28:45;4.40;;;2.10;;
83125;SDS011;73488;47.234;-1.540;2024-01-07T06:31:10;2.17;;;1.95;;
83125;SDS011;73488;47.234;-1.540;2024-01-07T06:33:36;2.08;;;1.67;;
83125;SDS011;73488;47.234;-1.540;2024-01-07T06:36:01;2.47;;;1.92;;
83125;SDS011;73488;47.234;-1.540;2024-01-07T06:38:27;1.98;;;1.77;;
83125;SDS011;73488;47.234;-1.540;2024-01-07T06:40:52;5.18;;;2.15;;
83125;SDS011;73488;47.234;-1.540;2024-01-07T06:43:20;1.92;;;1.73;;
83125;SDS011;73488;47.234;-1.540;2024-01-07T06:45:45;1.52;;;1.42;;
83125;SDS011;73488;47.234;-1.540;2024-01-07T06:48:11;2.25;;;1.98;;
83125;SDS011;73488;47.234;-1.540;2024-01-07T06:50:36;2.10;;;1.60;;
83125;SDS011;73488;47.234;-1.540;2024-01-07T06:53:02;4.10;;;2.10;;
83125;SDS011;73488;47.234;-1.540;2024-01-07T06:55:27;2.15;;;1.60;;
83125;SDS011;73488;47.234;-1.540;2024-01-07T06:57:52;2.50;;;1.80;;
83125;SDS011;73488;47.234;-1.540;2024-01-07T07:00:18;2.50;;;1.65;;
83125;SDS011;73488;47.234;-1.540;2024-01-07T07:02:43;2.80;;;1.90;;
83125;SDS011;73488;47.234;-1.540;2024-01-07T07:05:09;1.92;;;1.83;;
83125;SDS011;73488;47.234;-1.540;2024-01-07T07:07:34;1.80;;;1.60;;
83125;SDS011;73488;47.234;-1.540;2024-01-07T07:10:00;2.55;;;1.75;;
83125;SDS011;73488;47.234;-1.540;2024-01-07T07:12:25;3.50;;;1.80;;
83125;SDS011;73488;47.234;-1.540;2024-01-07T07:14:51;2.63;;;1.67;;
83125;SDS011;73488;47.234;-1.540;2024-01-07T07:17:16;1.98;;;1.77;;
83125;SDS011;73488;47.234;-1.540;2024-01-07T07:19:42;2.95;;;1.75;;
83125;SDS011;73488;47.234;-1.540;2024-01-07T07:22:07;3.08;;;1.70;;
83125;SDS011;73488;47.234;-1.540;2024-01-07T07:24:32;2.55;;;2.05;;
83125;SDS011;73488;47.234;-1.540;2024-01-07T07:26:58;2.65;;;2.22;;
83125;SDS011;73488;47.234;-1.540;2024-01-07T07:29:23;2.92;;;1.52;;
83125;SDS011;73488;47.234;-1.540;2024-01-07T07:31:49;2.28;;;2.08;;
83125;SDS011;73488;47.234;-1.540;2024-01-07T07:34:14;2.92;;;1.00;;
83125;SDS011;73488;47.234;-1.540;2024-01-07T07:36:40;4.55;;;1.83;;
83125;SDS011;73488;47.234;-1.540;2024-01-07T07:39:06;3.92;;;1.25;;
83125;SDS011;73488;47.234;-1.540;2024-01-07T07:41:32;2.13;;;1.20;;
83125;SDS011;73488;47.234;-1.540;2024-01-07T07:43:57;3.38;;;1.70;;
83125;SDS011;73488;47.234;-1.540;2024-01-07T07:46:23;2.03;;;1.65;;
83125;SDS011;73488;47.234;-1.540;2024-01-07T07:48:48;2.45;;;1.60;;
83125;SDS011;73488;47.234;-1.540;2024-01-07T07:51:14;2.45;;;1.55;;
83125;SDS011;73488;47.234;-1.540;2024-01-07T07:53:39;2.08;;;1.70;;
83125;SDS011;73488;47.234;-1.540;2024-01-07T07:56:05;2.38;;;1.85;;
83125;SDS011;73488;47.234;-1.540;2024-01-07T07:58:31;2.83;;;2.35;;
83125;SDS011;73488;47.234;-1.540;2024-01-07T08:00:56;2.97;;;1.98;;
83125;SDS011;73488;47.234;-1.540;2024-01-07T08:03:22;5.00;;;1.40;;
83125;SDS011;73488;47.234;-1.540;2024-01-07T08:05:48;2.55;;;1.67;;
83125;SDS011;73488;47.234;-1.540;2024-01-07T08:08:14;1.58;;;0.95;;
83125;SDS011;73488;47.234;-1.540;2024-01-07T08:10:41;2.95;;;1.50;;
83125;SDS011;73488;47.234;-1.540;2024-01-07T08:13:07;2.40;;;1.48;;
83125;SDS011;73488;47.234;-1.540;2024-01-07T08:15:34;4.93;;;1.67;;
83125;SDS011;73488;47.234;-1.540;2024-01-07T08:17:59;2.13;;;1.52;;
83125;SDS011;73488;47.234;-1.540;2024-01-07T08:20:25;1.83;;;1.48;;
83125;SDS011;73488;47.234;-1.540;2024-01-07T08:22:50;2.92;;;2.25;;
83125;SDS011;73488;47.234;-1.540;2024-01-07T08:25:16;1.92;;;1.60;;
83125;SDS011;73488;47.234;-1.540;2024-01-07T08:27:41;2.63;;;1.80;;
83125;SDS011;73488;47.234;-1.540;2024-01-07T08:30:07;2.40;;;1.70;;
83125;SDS011;73488;47.234;-1.540;2024-01-07T08:32:33;2.20;;;2.00;;
83125;SDS011;73488;47.234;-1.540;2024-01-07T08:35:00;2.13;;;1.60;;
83125;SDS011;73488;47.234;-1.540;2024-01-07T08:37:25;2.40;;;1.92;;
83125;SDS011;73488;47.234;-1.540;2024-01-07T08:39:51;2.22;;;2.03;;
83125;SDS011;73488;47.234;-1.540;2024-01-07T08:42:16;3.50;;;1.80;;
83125;SDS011;73488;47.234;-1.540;2024-01-07T08:44:42;2.80;;;1.90;;
83125;SDS011;73488;47.234;-1.540;2024-01-07T08:47:07;3.95;;;2.03;;
83125;SDS011;73488;47.234;-1.540;2024-01-07T08:49:33;2.25;;;2.05;;
83125;SDS011;73488;47.234;-1.540;2024-01-07T08:51:58;2.72;;;1.95;;
83125;SDS011;73488;47.234;-1.540;2024-01-07T08:54:24;2.60;;;1.80;;
83125;SDS011;73488;47.234;-1.540;2024-01-07T08:56:50;2.58;;;1.20;;
83125;SDS011;73488;47.234;-1.540;2024-01-07T08:59:15;2.60;;;1.80;;
83125;SDS011;73488;47.234;-1.540;2024-01-07T09:01:41;4.13;;;1.70;;
83125;SDS011;73488;47.234;-1.540;2024-01-07T09:04:06;3.85;;;1.77;;
83125;SDS011;73488;47.234;-1.540;2024-01-07T09:06:32;2.55;;;1.15;;
83125;SDS011;73488;47.234;-1.540;2024-01-07T09:08:57;2.80;;;1.83;;
83125;SDS011;73488;47.234;-1.540;2024-01-07T09:11:23;2.38;;;1.88;;
83125;SDS011;73488;47.234;-1.540;2024-01-07T09:13:49;4.32;;;1.25;;
83125;SDS011;73488;47.234;-1.540;2024-01-07T09:16:15;3.70;;;2.00;;
83125;SDS011;73488;47.234;-1.540;2024-01-07T09:18:41;3.40;;;1.85;;
83125;SDS011;73488;47.234;-1.540;2024-01-07T09:21:08;2.85;;;1.83;;
83125;SDS011;73488;47.234;-1.540;2024-01-07T09:23:34;2.78;;;1.95;;
83125;SDS011;73488;47.234;-1.540;2024-01-07T09:26:01;3.60;;;1.83;;
83125;SDS011;73488;47.234;-1.540;2024-01-07T09:28:26;7.32;;;2.13;;
83125;SDS011;73488;47.234;-1.540;2024-01-07T09:30:52;3.72;;;2.47;;
83125;SDS011;73488;47.234;-1.540;2024-01-07T09:33:17;3.10;;;2.00;;
83125;SDS011;73488;47.234;-1.540;2024-01-07T09:35:43;5.20;;;2.45;;
83125;SDS011;73488;47.234;-1.540;2024-01-07T09:38:08;3.42;;;1.88;;
83125;SDS011;73488;47.234;-1.540;2024-01-07T09:40:34;5.28;;;1.95;;
83125;SDS011;73488;47.234;-1.540;2024-01-07T09:42:59;4.32;;;2.00;;
83125;SDS011;73488;47.234;-1.540;2024-01-07T09:45:25;5.03;;;2.15;;
83125;SDS011;73488;47.234;-1.540;2024-01-07T09:47:51;4.72;;;1.83;;
83125;SDS011;73488;47.234;-1.540;2024-01-07T09:50:17;6.43;;;2.53;;
83125;SDS011;73488;47.234;-1.540;2024-01-07T09:52:45;4.05;;;2.13;;
83125;SDS011;73488;47.234;-1.540;2024-01-07T09:55:12;7.93;;;1.13;;
83125;SDS011;73488;47.234;-1.540;2024-01-07T09:57:40;5.07;;;2.65;;
83125;SDS011;73488;47.234;-1.540;2024-01-07T10:00:06;4.45;;;1.52;;
83125;SDS011;73488;47.234;-1.540;2024-01-07T10:02:33;3.85;;;1.65;;
83125;SDS011;73488;47.234;-1.540;2024-01-07T10:04:58;2.90;;;2.42;;
83125;SDS011;73488;47.234;-1.540;2024-01-07T10:07:24;3.25;;;2.17;;
83125;SDS011;73488;47.234;-1.540;2024-01-07T10:09:50;4.10;;;1.90;;
83125;SDS011;73488;47.234;-1.540;2024-01-07T10:12:16;3.97;;;1.77;;
83125;SDS011;73488;47.234;-1.540;2024-01-07T10:14:41;4.22;;;2.10;;
83125;SDS011;73488;47.234;-1.540;2024-01-07T10:17:16;3.50;;;1.67;;
83125;SDS011;73488;47.234;-1.540;2024-01-07T10:19:43;6.07;;;2.60;;
83125;SDS011;73488;47.234;-1.540;2024-01-07T10:22:11;7.32;;;2.10;;
83125;SDS011;73488;47.234;-1.540;2024-01-07T10:24:37;7.78;;;2.58;;
83125;SDS011;73488;47.234;-1.540;2024-01-07T10:27:04;3.97;;;2.70;;
83125;SDS011;73488;47.234;-1.540;2024-01-07T10:29:30;4.97;;;2.40;;
83125;SDS011;73488;47.234;-1.540;2024-01-07T10:31:57;6.75;;;2.42;;
83125;SDS011;73488;47.234;-1.540;2024-01-07T10:34:23;4.60;;;2.30;;
83125;SDS011;73488;47.234;-1.540;2024-01-07T10:36:49;7.22;;;2.72;;
83125;SDS011;73488;47.234;-1.540;2024-01-07T10:39:18;7.53;;;2.55;;
83125;SDS011;73488;47.234;-1.540;2024-01-07T10:41:46;8.10;;;2.45;;
83125;SDS011;73488;47.234;-1.540;2024-01-07T10:44:11;4.70;;;2.45;;
83125;SDS011;73488;47.234;-1.540;2024-01-07T10:46:36;5.63;;;2.78;;
83125;SDS011;73488;47.234;-1.540;2024-01-07T10:49:07;7.63;;;2.38;;
83125;SDS011;73488;47.234;-1.540;2024-01-07T10:51:35;7.47;;;2.88;;
83125;SDS011;73488;47.234;-1.540;2024-01-07T10:54:01;7.95;;;2.58;;
83125;SDS011;73488;47.234;-1.540;2024-01-07T10:56:32;4.22;;;2.58;;
83125;SDS011;73488;47.234;-1.540;2024-01-07T10:59:00;5.75;;;2.55;;
83125;SDS011;73488;47.234;-1.540;2024-01-07T11:01:25;6.57;;;2.38;;
83125;SDS011;73488;47.234;-1.540;2024-01-07T11:04:00;6.28;;;2.58;;
83125;SDS011;73488;47.234;-1.540;2024-01-07T11:12:00;7.55;;;2.30;;
83125;SDS011;73488;47.234;-1.540;2024-01-07T11:14:38;7.10;;;2.35;;
83125;SDS011;73488;47.234;-1.540;2024-01-07T11:17:05;10.50;;;3.00;;
83125;SDS011;73488;47.234;-1.540;2024-01-07T11:19:31;8.43;;;3.15;;
83125;SDS011;73488;47.234;-1.540;2024-01-07T11:24:52;6.35;;;2.30;;
83125;SDS011;73488;47.234;-1.540;2024-01-07T11:27:24;9.77;;;3.55;;
83125;SDS011;73488;47.234;-1.540;2024-01-07T11:29:54;9.50;;;2.97;;
83125;SDS011;73488;47.234;-1.540;2024-01-07T11:32:29;8.90;;;3.20;;
83125;SDS011;73488;47.234;-1.540;2024-01-07T11:34:55;9.52;;;3.30;;
83125;SDS011;73488;47.234;-1.540;2024-01-07T11:37:22;6.20;;;2.75;;
83125;SDS011;73488;47.234;-1.540;2024-01-07T11:39:48;7.00;;;3.13;;
83125;SDS011;73488;47.234;-1.540;2024-01-07T11:42:15;7.30;;;3.00;;
83125;SDS011;73488;47.234;-1.540;2024-01-07T11:44:51;10.05;;;4.25;;
83125;SDS011;73488;47.234;-1.540;2024-01-07T11:47:18;6.25;;;2.20;;
83125;SDS011;73488;47.234;-1.540;2024-01-07T11:49:44;9.07;;;2.50;;
83125;SDS011;73488;47.234;-1.540;2024-01-07T11:52:10;8.65;;;2.47;;
83125;SDS011;73488;47.234;-1.540;2024-01-07T11:54:39;11.55;;;3.15;;
83125;SDS011;73488;47.234;-1.540;2024-01-07T11:57:05;7.97;;;2.78;;
83125;SDS011;73488;47.234;-1.540;2024-01-07T11:59:31;5.55;;;2.45;;
83125;SDS011;73488;47.234;-1.540;2024-01-07T12:01:56;7.65;;;2.47;;
83125;SDS011;73488;47.234;-1.540;2024-01-07T12:04:22;9.90;;;2.47;;
83125;SDS011;73488;47.234;-1.540;2024-01-07T12:06:50;5.68;;;2.58;;
83125;SDS011;73488;47.234;-1.540;2024-01-07T12:09:16;7.03;;;3.65;;
83125;SDS011;73488;47.234;-1.540;2024-01-07T12:11:41;5.20;;;3.30;;
83125;SDS011;73488;47.234;-1.540;2024-01-07T12:14:07;6.40;;;3.28;;
83125;SDS011;73488;47.234;-1.540;2024-01-07T12:16:34;8.13;;;5.18;;
83125;SDS011;73488;47.234;-1.540;2024-01-07T12:19:00;7.45;;;4.28;;
83125;SDS011;73488;47.234;-1.540;2024-01-07T12:21:25;4.60;;;3.60;;
83125;SDS011;73488;47.234;-1.540;2024-01-07T12:23:53;4.90;;;3.20;;
83125;SDS011;73488;47.234;-1.540;2024-01-07T12:26:19;5.05;;;3.03;;
83125;SDS011;73488;47.234;-1.540;2024-01-07T12:28:44;7.45;;;3.55;;
83125;SDS011;73488;47.234;-1.540;2024-01-07T12:31:10;6.07;;;3.38;;
83125;SDS011;73488;47.234;-1.540;2024-01-07T12:33:39;5.50;;;2.80;;
83125;SDS011;73488;47.234;-1.540;2024-01-07T12:36:06;6.90;;;3.72;;
83125;SDS011;73488;47.234;-1.540;2024-01-07T12:38:32;7.00;;;3.15;;
83125;SDS011;73488;47.234;-1.540;2024-01-07T12:40:57;6.45;;;3.35;;
83125;SDS011;73488;47.234;-1.540;2024-01-07T12:43:23;3.90;;;3.45;;
83125;SDS011;73488;47.234;-1.540;2024-01-07T12:45:49;5.82;;;3.13;;
83125;SDS011;73488;47.234;-1.540;2024-01-07T12:48:14;5.38;;;2.65;;
83125;SDS011;73488;47.234;-1.540;2024-01-07T12:50:40;4.13;;;2.70;;
83125;SDS011;73488;47.234;-1.540;2024-01-07T12:53:05;5.75;;;3.08;;
83125;SDS011;73488;47.234;-1.540;2024-01-07T12:55:31;5.45;;;2.35;;
83125;SDS011;73488;47.234;-1.540;2024-01-07T12:57:57;5.00;;;2.90;;
83125;SDS011;73488;47.234;-1.540;2024-01-07T13:00:23;5.15;;;2.72;;
83125;SDS011;73488;47.234;-1.540;2024-01-07T13:02:50;4.53;;;2.83;;
83125;SDS011;73488;47.234;-1.540;2024-01-07T13:05:15;6.03;;;3.13;;
83125;SDS011;73488;47.234;-1.540;2024-01-07T13:07:41;3.10;;;2.63;;
83125;SDS011;73488;47.234;-1.540;2024-01-07T13:10:06;3.85;;;2.13;;
83125;SDS011;73488;47.234;-1.540;2024-01-07T13:12:32;2.92;;;2.53;;
83125;SDS011;73488;47.234;-1.540;2024-01-07T13:14:57;5.07;;;2.83;;
83125;SDS011;73488;47.234;-1.540;2024-01-07T13:17:23;3.53;;;2.00;;
83125;SDS011;73488;47.234;-1.540;2024-01-07T13:19:48;3.05;;;2.40;;
83125;SDS011;73488;47.234;-1.540;2024-01-07T13:22:14;3.30;;;2.75;;
83125;SDS011;73488;47.234;-1.540;2024-01-07T13:24:39;3.83;;;2.95;;
83125;SDS011;73488;47.234;-1.540;2024-01-07T13:27:06;4.07;;;2.13;;
83125;SDS011;73488;47.234;-1.540;2024-01-07T13:29:33;3.47;;;2.60;;
83125;SDS011;73488;47.234;-1.540;2024-01-07T13:31:59;3.92;;;2.55;;
83125;SDS011;73488;47.234;-1.540;2024-01-07T13:34:24;5.22;;;2.65;;
83125;SDS011;73488;47.234;-1.540;2024-01-07T13:36:50;4.53;;;2.10;;
83125;SDS011;73488;47.234;-1.540;2024-01-07T13:39:16;3.42;;;2.33;;
83125;SDS011;73488;47.234;-1.540;2024-01-07T13:41:42;4.38;;;2.80;;
83125;SDS011;73488;47.234;-1.540;2024-01-07T13:44:09;6.13;;;2.40;;
83125;SDS011;73488;47.234;-1.540;2024-01-07T13:46:42;2.78;;;1.25;;
83125;SDS011;73488;47.234;-1.540;2024-01-07T13:49:11;3.42;;;2.42;;
83125;SDS011;73488;47.234;-1.540;2024-01-07T13:51:40;3.53;;;2.15;;
83125;SDS011;73488;47.234;-1.540;2024-01-07T13:54:06;2.83;;;2.30;;
83125;SDS011;73488;47.234;-1.540;2024-01-07T13:56:32;2.65;;;1.90;;
83125;SDS011;73488;47.234;-1.540;2024-01-07T13:59:00;2.92;;;2.58;;
83125;SDS011;73488;47.234;-1.540;2024-01-07T14:01:28;3.67;;;1.88;;
83125;SDS011;73488;47.234;-1.540;2024-01-07T14:03:53;4.32;;;2.03;;
83125;SDS011;73488;47.234;-1.540;2024-01-07T14:06:19;3.05;;;2.08;;
83125;SDS011;73488;47.234;-1.540;2024-01-07T14:08:44;2.83;;;2.33;;
83125;SDS011;73488;47.234;-1.540;2024-01-07T14:11:10;3.47;;;2.40;;
83125;SDS011;73488;47.234;-1.540;2024-01-07T14:13:35;3.95;;;2.38;;
83125;SDS011;73488;47.234;-1.540;2024-01-07T14:16:01;2.95;;;2.05;;
83125;SDS011;73488;47.234;-1.540;2024-01-07T14:18:27;2.78;;;1.70;;
83125;SDS011;73488;47.234;-1.540;2024-01-07T14:20:53;3.05;;;1.80;;
83125;SDS011;73488;47.234;-1.540;2024-01-07T14:23:18;2.90;;;2.40;;
83125;SDS011;73488;47.234;-1.540;2024-01-07T14:25:44;3.40;;;2.10;;
83125;SDS011;73488;47.234;-1.540;2024-01-07T14:28:09;3.88;;;2.00;;
83125;SDS011;73488;47.234;-1.540;2024-01-07T14:30:35;2.33;;;1.80;;
83125;SDS011;73488;47.234;-1.540;2024-01-07T14:33:01;2.33;;;2.03;;
83125;SDS011;73488;47.234;-1.540;2024-01-07T14:35:26;2.38;;;2.17;;
83125;SDS011;73488;47.234;-1.540;2024-01-07T14:37:54;2.78;;;2.17;;